Time;durP1;ratioP1;P1;durP2;ratioP2;P2;SDS_P1;SDS_P2;PMS_P1;PMS_P2;Temp;Humidity;BMP_temperature;BMP_pressure;BME280_temperature;BME280_humidity;BME280_pressure;Samples;Min_cycle;Max_cycle;Signal;HPM_P1;HPM_P2
2022/03/26 00:04:18;;;;;;;35.10;17.30;;;;;;;1.14;100.00;97824.38;10367324;28;20195;-50
2022/03/26 00:09:18;;;;;;;34.43;17.03;;;;;;;1.28;100.00;97811.66;10367189;28;20244;-51
2022/03/26 00:14:19;;;;;;;37.00;17.43;;;;;;;1.19;100.00;97812.09;10367470;28;20201;-50
2022/03/26 00:19:19;;;;;;;45.03;21.13;;;;;;;1.12;100.00;97810.69;10367202;28;20196;-51
2022/03/26 00:24:19;;;;;;;54.77;21.10;;;;;;;1.08;100.00;97809.19;10367034;28;20761;-50
2022/03/26 00:29:20;;;;;;;52.60;23.77;;;;;;;1.10;100.00;97812.53;10366063;28;20316;-52
2022/03/26 00:34:20;;;;;;;46.87;23.47;;;;;;;1.06;100.00;97812.66;10370745;28;20257;-50
2022/03/26 00:39:21;;;;;;;45.73;21.70;;;;;;;1.02;100.00;97810.28;10373823;28;20197;-51
2022/03/26 00:44:21;;;;;;;53.33;22.00;;;;;;;1.09;100.00;97800.53;10373748;28;20191;-54
2022/03/26 00:49:21;;;;;;;48.23;23.50;;;;;;;1.03;100.00;97802.47;10373566;28;20300;-52
2022/03/26 00:54:22;;;;;;;55.43;25.40;;;;;;;0.91;100.00;97797.88;10373590;28;20192;-55
2022/03/26 00:59:23;;;;;;;49.00;19.80;;;;;;;1.00;100.00;97802.63;10372699;28;20522;-52
2022/03/26 01:04:23;;;;;;;46.63;24.03;;;;;;;0.96;100.00;97793.34;10372821;28;20193;-53
2022/03/26 01:09:23;;;;;;;37.90;18.40;;;;;;;0.98;100.00;97790.69;10372383;28;20229;-52
2022/03/26 01:14:24;;;;;;;52.83;24.80;;;;;;;0.98;100.00;97783.81;10372426;28;20276;-55
2022/03/26 01:19:24;;;;;;;42.67;20.20;;;;;;;0.98;100.00;97788.13;10372791;28;20209;-50
2022/03/26 01:24:25;;;;;;;60.33;22.83;;;;;;;0.89;100.00;97784.22;10371811;28;20193;-54
2022/03/26 01:29:25;;;;;;;47.13;21.53;;;;;;;0.94;100.00;97782.25;10371914;28;20367;-56
2022/03/26 01:34:27;;;;;;;50.20;22.53;;;;;;;0.95;100.00;97783.94;10372108;28;20193;-50
2022/03/26 01:39:28;;;;;;;56.37;25.60;;;;;;;0.89;100.00;97787.63;10370635;28;20218;-55
2022/03/26 01:44:29;;;;;;;34.70;15.07;;;;;;;0.93;100.00;97790.06;10371361;28;20220;-54
2022/03/26 01:49:30;;;;;;;37.70;18.53;;;;;;;0.92;100.00;97796.13;10371140;28;20225;-50
2022/03/26 01:54:31;;;;;;;48.80;22.83;;;;;;;0.86;100.00;97794.69;10371393;28;20684;-56
2022/03/26 01:59:33;;;;;;;51.63;24.00;;;;;;;0.88;100.00;97783.38;10370128;28;20209;-51
2022/03/26 02:04:34;;;;;;;52.50;23.13;;;;;;;0.88;100.00;97779.97;10369499;28;20234;-51
2022/03/26 02:09:35;;;;;;;38.83;20.40;;;;;;;0.81;100.00;97789.75;10370065;28;20313;-50
2022/03/26 02:14:36;;;;;;;52.17;23.67;;;;;;;0.85;100.00;97786.09;10370101;28;20185;-50
2022/03/26 02:19:37;;;;;;;39.37;17.20;;;;;;;0.89;100.00;97776.50;10370742;28;20298;-52
2022/03/26 02:24:37;;;;;;;54.30;21.57;;;;;;;0.87;100.00;97780.88;10369694;28;20335;-52
2022/03/26 02:29:38;;;;;;;47.97;20.47;;;;;;;0.89;100.00;97777.31;10369784;28;20243;-51
2022/03/26 02:34:38;;;;;;;47.03;19.53;;;;;;;0.84;100.00;97773.25;10369778;28;20211;-50
2022/03/26 02:39:38;;;;;;;51.13;24.47;;;;;;;0.68;100.00;97786.84;10369417;28;20202;-50
2022/03/26 02:44:40;;;;;;;51.17;24.13;;;;;;;0.70;100.00;97782.47;10369241;28;20227;-50
2022/03/26 02:49:40;;;;;;;40.77;19.70;;;;;;;0.71;100.00;97781.56;10369089;28;20225;-50
2022/03/26 02:54:41;;;;;;;45.33;21.93;;;;;;;0.68;100.00;97778.28;10368830;28;20626;-51
2022/03/26 02:59:41;;;;;;;47.87;21.93;;;;;;;0.63;100.00;97773.34;10368692;28;20229;-50
2022/03/26 03:04:42;;;;;;;54.90;26.87;;;;;;;0.60;100.00;97765.75;10368747;28;20193;-50
2022/03/26 03:09:43;;;;;;;48.87;22.40;;;;;;;0.65;100.00;97763.78;10367998;28;20317;-50
2022/03/26 03:14:43;;;;;;;48.93;20.57;;;;;;;0.65;100.00;97766.38;10368279;28;20281;-50
2022/03/26 03:19:44;;;;;;;37.43;17.00;;;;;;;0.64;100.00;97761.28;10368623;28;20695;-50
2022/03/26 03:24:44;;;;;;;42.97;19.77;;;;;;;0.63;100.00;97757.00;10370008;28;20200;-51
2022/03/26 03:29:44;;;;;;;44.87;22.57;;;;;;;0.67;100.00;97749.09;10369875;28;20229;-50
2022/03/26 03:34:45;;;;;;;49.27;18.37;;;;;;;0.61;100.00;97749.34;10369975;28;20272;-50
2022/03/26 03:39:45;;;;;;;40.60;16.57;;;;;;;0.66;100.00;97747.41;10369846;28;20229;-53
2022/03/26 03:44:45;;;;;;;56.57;25.53;;;;;;;0.59;100.00;97735.69;10369817;28;20193;-50
2022/03/26 03:49:46;;;;;;;40.47;16.13;;;;;;;0.69;100.00;97738.72;10369570;28;20240;-52
2022/03/26 03:54:46;;;;;;;38.17;19.70;;;;;;;0.74;100.00;97729.00;10369556;28;20278;-54
2022/03/26 03:59:47;;;;;;;37.40;16.07;;;;;;;0.81;100.00;97724.41;10369547;28;20217;-55
2022/03/26 04:04:48;;;;;;;33.93;14.70;;;;;;;0.74;100.00;97712.72;10370546;28;20209;-55
2022/03/26 04:09:48;;;;;;;38.57;17.90;;;;;;;0.69;100.00;97725.81;10374549;28;20316;-54
2022/03/26 04:14:48;;;;;;;50.93;23.53;;;;;;;0.64;100.00;97730.31;10377023;28;20193;-50
2022/03/26 04:19:49;;;;;;;45.70;21.17;;;;;;;0.71;100.00;97740.28;10376455;28;20298;-49
2022/03/26 04:24:49;;;;;;;51.00;23.87;;;;;;;0.67;100.00;97743.94;10376789;28;20202;-53
2022/03/26 04:29:49;;;;;;;56.33;23.13;;;;;;;0.61;100.00;97744.19;10375969;28;20236;-49
2022/03/26 04:34:50;;;;;;;35.97;15.33;;;;;;;0.69;100.00;97749.03;10376177;28;20196;-50
2022/03/26 04:39:50;;;;;;;46.93;19.37;;;;;;;0.62;100.00;97745.03;10375794;28;20209;-50
2022/03/26 04:44:50;;;;;;;52.60;21.93;;;;;;;0.55;100.00;97753.94;10375166;28;20182;-50
2022/03/26 04:49:51;;;;;;;39.47;16.23;;;;;;;0.57;100.00;97747.81;10375098;28;20270;-50
2022/03/26 04:54:51;;;;;;;41.47;18.63;;;;;;;0.63;100.00;97751.84;10374720;28;20286;-52
2022/03/26 04:59:52;;;;;;;39.97;12.67;;;;;;;0.66;100.00;97744.84;10374406;28;20213;-52
2022/03/26 05:04:53;;;;;;;38.00;18.30;;;;;;;0.72;100.00;97751.47;10374544;28;20193;-52
2022/03/26 05:09:53;;;;;;;40.97;18.30;;;;;;;0.65;100.00;97745.72;10373724;28;20225;-50
2022/03/26 05:14:53;;;;;;;49.77;20.67;;;;;;;0.67;100.00;97753.41;10374191;28;20204;-51
2022/03/26 05:19:54;;;;;;;57.80;25.93;;;;;;;0.59;100.00;97753.75;10374083;28;20294;-50
2022/03/26 05:24:54;;;;;;;48.73;22.13;;;;;;;0.63;100.00;97762.16;10374435;28;20197;-53
2022/03/26 05:29:55;;;;;;;53.80;26.10;;;;;;;0.69;100.00;97760.16;10374179;28;20958;-51
2022/03/26 05:34:55;;;;;;;51.10;23.37;;;;;;;0.78;100.00;97761.50;10464697;23;20239;-57
2022/03/26 05:39:56;;;;;;;47.77;21.67;;;;;;;0.96;100.00;97764.13;10455865;28;20824;-57
2022/03/26 05:44:57;;;;;;;44.87;20.70;;;;;;;1.02;100.00;97759.53;10455680;28;20560;-57
2022/03/26 05:49:57;;;;;;;47.90;23.00;;;;;;;1.04;100.00;97762.88;10455535;28;20627;-57
2022/03/26 05:54:57;;;;;;;39.00;19.33;;;;;;;1.06;100.00;97750.72;10455250;28;20261;-57
2022/03/26 05:59:58;;;;;;;43.00;20.13;;;;;;;1.46;100.00;97757.50;10455309;28;20188;-57
2022/03/26 06:04:58;;;;;;;41.67;19.23;;;;;;;1.78;100.00;97751.59;10454825;28;20226;-56
2022/03/26 06:09:58;;;;;;;39.40;15.80;;;;;;;2.16;100.00;97768.69;10454254;28;20310;-59
2022/03/26 06:14:59;;;;;;;34.83;17.37;;;;;;;2.68;100.00;97755.63;10454341;28;20269;-58
2022/03/26 06:19:59;;;;;;;48.60;23.00;;;;;;;3.30;100.00;97769.59;10454253;28;20196;-57
2022/03/26 06:25:00;;;;;;;43.93;22.83;;;;;;;3.42;100.00;97779.25;10454387;28;20219;-58
2022/03/26 06:30:00;;;;;;;41.47;21.27;;;;;;;3.82;100.00;97779.59;10453345;28;20781;-58
2022/03/26 06:35:01;;;;;;;36.77;18.73;;;;;;;4.05;100.00;97785.22;10453882;28;20239;-58
2022/03/26 06:40:02;;;;;;;38.47;21.27;;;;;;;4.05;100.00;97782.63;10453473;28;20184;-56
2022/03/26 06:45:03;;;;;;;41.73;20.47;;;;;;;4.52;100.00;97788.50;10453383;28;20216;-54
2022/03/26 06:50:04;;;;;;;64.17;29.77;;;;;;;4.77;99.50;97780.09;10453050;28;20219;-55
2022/03/26 06:55:05;;;;;;;43.37;20.47;;;;;;;5.52;96.04;97774.56;10452955;28;20215;-56
2022/03/26 07:00:06;;;;;;;39.80;21.23;;;;;;;6.00;92.71;97767.13;10439392;28;20197;-58
2022/03/26 07:05:07;;;;;;;37.33;18.13;;;;;;;6.56;89.77;97759.00;10449438;28;20211;-57
2022/03/26 07:10:08;;;;;;;40.57;19.23;;;;;;;7.53;86.12;97740.91;10451925;28;20247;-54
2022/03/26 07:15:09;;;;;;;35.47;18.70;;;;;;;8.27;80.04;97700.66;10452406;28;20259;-60
2022/03/26 07:20:10;;;;;;;42.40;20.80;;;;;;;9.37;74.85;97664.19;10452390;28;20192;-57
2022/03/26 07:25:10;;;;;;;45.00;20.57;;;;;;;10.41;67.42;97585.72;10452278;28;20314;-54
2022/03/26 07:30:11;;;;;;;38.87;19.40;;;;;;;11.37;64.96;97584.13;10452071;28;20227;-59
2022/03/26 07:35:11;;;;;;;41.27;20.43;;;;;;;11.17;62.71;97551.03;10451858;28;20243;-59
2022/03/26 07:40:13;;;;;;;39.23;20.00;;;;;;;11.20;61.91;97548.94;10456354;28;20278;-55
2022/03/26 07:45:13;;;;;;;49.70;20.42;;;;;;;12.10;60.18;97528.41;10452117;28;20572;-60
2022/03/26 07:50:14;;;;;;;39.42;20.00;;;;;;;10.84;63.43;97590.63;10434351;28;20209;-55
2022/03/26 07:55:14;;;;;;;34.25;18.45;;;;;;;11.46;61.58;97563.28;10441443;28;20208;-58
2022/03/26 08:00:15;;;;;;;37.67;20.43;;;;;;;11.11;63.27;97606.66;10434908;28;20299;-54
2022/03/26 08:05:15;;;;;;;37.00;19.35;;;;;;;12.08;60.32;97568.91;10426273;28;20759;-54
2022/03/26 08:10:16;;;;;;;46.15;22.52;;;;;;;12.57;58.67;97534.50;10452609;28;20274;-58
2022/03/26 08:15:16;;;;;;;39.72;21.27;;;;;;;13.41;56.99;97522.75;10452545;28;20579;-59
2022/03/26 08:20:16;;;;;;;37.38;21.02;;;;;;;14.22;55.36;97505.69;10446560;28;20197;-59
2022/03/26 08:26:19;;;;;;;44.95;21.98;;;;;;;13.38;56.14;97512.53;10428565;28;20840;-60
2022/03/26 08:30:38;;;;;;;41.03;21.40;;;;;;;13.72;55.18;97514.38;10412999;28;20227;-59
2022/03/26 08:35:39;;;;;;;42.97;22.42;;;;;;;14.45;54.45;97513.84;10411262;28;20236;-61
2022/03/26 08:40:40;;;;;;;40.95;22.67;;;;;;;13.86;55.52;97534.06;10451984;28;20681;-60
2022/03/26 08:45:40;;;;;;;41.50;22.70;;;;;;;15.21;53.00;97502.41;10452818;28;20199;-60
2022/03/26 08:50:41;;;;;;;48.78;26.38;;;;;;;15.58;50.77;97464.06;10445161;28;20227;-59
2022/03/26 08:55:41;;;;;;;43.97;24.13;;;;;;;16.26;49.36;97444.13;10442229;28;20195;-61
2022/03/26 09:00:42;;;;;;;45.35;24.33;;;;;;;16.77;48.46;97452.38;10451531;28;20690;-59
2022/03/26 09:05:42;;;;;;;44.85;25.08;;;;;;;16.26;49.36;97459.97;10452471;28;20536;-61
2022/03/26 09:10:43;;;;;;;48.63;25.77;;;;;;;16.60;49.28;97477.31;10451003;28;20216;-61
2022/03/26 09:15:44;;;;;;;41.72;24.95;;;;;;;17.47;47.30;97439.00;10451704;28;20253;-59
2022/03/26 09:20:44;;;;;;;46.72;26.75;;;;;;;16.20;48.46;97436.88;10450976;28;20568;-56
2022/03/26 09:25:45;;;;;;;41.75;24.45;;;;;;;18.09;44.98;97403.34;10452099;28;20534;-56
2022/03/26 09:30:45;;;;;;;47.05;25.25;;;;;;;18.79;43.46;97379.72;10450967;28;20224;-58
2022/03/26 09:35:45;;;;;;;51.78;27.05;;;;;;;17.65;45.29;97409.50;10451251;28;20258;-60
2022/03/26 09:40:46;;;;;;;51.58;27.25;;;;;;;18.33;43.64;97388.91;10449909;28;20191;-58
2022/03/26 09:45:46;;;;;;;52.58;27.98;;;;;;;17.86;44.76;97400.00;10442920;28;20232;-60
2022/03/26 09:50:47;;;;;;;47.85;27.13;;;;;;;18.23;45.05;97443.25;10417964;28;20212;-60
2022/03/26 09:55:48;;;;;;;46.22;28.92;;;;;;;16.51;46.49;97399.84;10450599;28;20184;-57
2022/03/26 10:00:48;;;;;;;40.95;26.95;;;;;;;18.26;45.19;97440.25;10449101;28;20192;-62
2022/03/26 10:05:49;;;;;;;49.28;26.80;;;;;;;19.00;43.83;97423.19;10450248;28;20192;-59
2022/03/26 10:10:52;;;;;;;42.95;25.35;;;;;;;18.09;45.53;97448.41;10448923;28;20350;-59
2022/03/26 10:16:00;;;;;;;44.08;24.95;;;;;;;18.61;44.91;97445.72;10447994;28;20204;-58
2022/03/26 10:21:00;;;;;;;46.35;24.80;;;;;;;19.28;42.38;97393.13;10449260;28;20208;-60
2022/03/26 10:26:24;;;;;;;39.00;22.75;;;;;;;19.04;43.50;97404.03;10449681;28;20322;-56
2022/03/26 10:36:53;;;;;;;32.30;20.40;;;;;;;20.23;40.28;97342.81;10445769;28;20184;-56
2022/03/26 10:41:55;;;;;;;28.67;16.48;;;;;;;19.12;40.74;97302.13;10447843;28;20200;-57
2022/03/26 10:47:00;;;;;;;35.33;18.13;;;;;;;19.65;40.56;97328.13;10447820;28;20223;-54
2022/03/26 10:52:15;;;;;;;26.90;13.93;;;;;;;19.83;39.14;97301.00;10448436;28;20247;-60
2022/03/26 10:57:18;;;;;;;27.73;15.50;;;;;;;20.03;39.37;97322.34;10448150;28;20184;-58
2022/03/26 11:02:18;;;;;;;25.50;15.32;;;;;;;19.07;39.74;97301.91;10446940;28;20338;-59
2022/03/26 11:07:19;;;;;;;29.65;13.95;;;;;;;19.56;38.63;97269.00;10445542;28;20195;-59
2022/03/26 11:12:21;;;;;;;19.10;12.15;;;;;;;19.66;37.64;97249.19;10445040;28;20231;-59
2022/03/26 11:17:40;;;;;;;23.08;10.70;;;;;;;20.50;37.40;97274.44;10448218;28;20774;-61
2022/03/26 11:23:18;;;;;;;16.45;9.32;;;;;;;20.23;38.96;97309.06;10449198;28;20690;-57
2022/03/26 11:28:23;;;;;;;15.85;9.80;;;;;;;20.92;37.89;97287.53;10450864;28;20277;-63
2022/03/26 11:33:23;;;;;;;26.38;11.35;;;;;;;21.67;37.01;97284.41;10455918;22;20241;-59
2022/03/26 11:38:27;;;;;;;21.50;11.10;;;;;;;20.30;38.80;97280.59;10369702;28;20201;-61
2022/03/26 11:43:42;;;;;;;19.50;11.32;;;;;;;17.74;41.65;97293.63;10368731;28;20225;-58
2022/03/26 11:54:14;;;;;;;13.15;8.63;;;;;;;20.81;39.26;97327.09;10368613;28;20703;-59
2022/03/26 11:59:17;;;;;;;17.15;9.77;;;;;;;20.93;38.80;97308.63;10351084;28;20715;-60
2022/03/26 12:04:26;;;;;;;23.73;11.52;;;;;;;21.51;38.76;97315.06;10367034;28;20229;-63
2022/03/26 12:09:37;;;;;;;18.33;11.05;;;;;;;22.34;37.00;97303.50;10368884;28;20568;-62
2022/03/26 12:15:02;;;;;;;17.15;10.27;;;;;;;22.24;37.00;97292.50;10367400;28;20558;-63
2022/03/26 12:20:22;;;;;;;14.60;9.30;;;;;;;22.32;36.81;97278.91;10327800;28;20562;-62
2022/03/26 12:25:32;;;;;;;18.92;10.50;;;;;;;21.00;38.96;97293.47;10329038;28;20320;-63
2022/03/26 12:30:33;;;;;;;13.45;9.23;;;;;;;22.11;37.24;97277.38;10334995;28;20696;-62
2022/03/26 12:35:33;;;;;;;15.27;8.65;;;;;;;21.10;36.87;97217.59;10334994;28;20233;-63
2022/03/26 12:40:34;;;;;;;22.15;11.07;;;;;;;21.60;37.79;97280.97;10333850;28;20190;-62
2022/03/26 12:45:35;;;;;;;22.20;11.48;;;;;;;22.41;37.20;97292.78;10334419;28;20214;-62
2022/03/26 12:50:38;;;;;;;18.80;11.95;;;;;;;21.28;38.36;97279.03;10334671;28;20222;-63
2022/03/26 12:55:39;;;;;;;22.23;11.85;;;;;;;21.58;38.52;97299.84;10334442;28;20300;-63
2022/03/26 13:00:40;;;;;;;19.42;12.23;;;;;;;21.00;38.73;97290.78;10334102;28;20288;-63
2022/03/26 13:05:41;;;;;;;21.67;11.00;;;;;;;21.70;37.79;97271.50;10334046;28;20218;-60
2022/03/26 13:10:42;;;;;;;20.48;11.88;;;;;;;22.23;37.93;97306.84;10333630;28;20315;-59
2022/03/26 13:15:59;;;;;;;21.35;12.05;;;;;;;21.93;38.32;97307.47;10332071;28;20600;-60
2022/03/26 13:21:04;;;;;;;23.73;12.43;;;;;;;21.89;37.92;97290.25;10333105;28;20193;-62
2022/03/26 13:26:05;;;;;;;18.95;12.05;;;;;;;21.05;39.16;97292.81;10333182;28;20296;-60
2022/03/26 13:31:21;;;;;;;19.17;13.20;;;;;;;21.19;39.27;97298.94;10332999;28;20754;-62
2022/03/26 13:36:29;;;;;;;21.70;13.32;;;;;;;22.33;37.07;97283.22;10337403;28;20241;-60
2022/03/26 13:41:29;;;;;;;22.52;13.15;;;;;;;22.79;36.50;97273.16;10372263;28;20188;-62
2022/03/26 13:46:31;;;;;;;15.48;12.23;;;;;;;22.68;36.25;97244.47;10371851;28;20221;-61
2022/03/26 13:51:34;;;;;;;18.85;13.65;;;;;;;21.05;39.17;97278.69;10372111;28;20221;-59
2022/03/26 13:56:36;;;;;;;19.50;12.30;;;;;;;22.48;36.74;97266.03;10371536;28;20222;-63
2022/03/26 14:01:40;;;;;;;21.95;13.43;;;;;;;20.63;38.44;97239.84;10371790;28;20585;-59
2022/03/26 14:06:40;;;;;;;20.25;12.32;;;;;;;21.52;38.30;97264.19;10371740;28;20224;-61
2022/03/26 14:11:41;;;;;;;18.90;12.95;;;;;;;21.17;39.18;97272.50;10372296;28;20248;-60
2022/03/26 14:16:41;;;;;;;19.83;12.23;;;;;;;21.66;38.70;97275.59;10372179;28;20729;-58
2022/03/26 14:21:42;;;;;;;19.23;13.75;;;;;;;19.84;40.37;97253.97;10371898;28;20186;-61
2022/03/26 14:26:42;;;;;;;20.67;14.25;;;;;;;18.63;44.24;97321.59;10371791;28;20216;-60
2022/03/26 14:31:43;;;;;;;23.35;13.95;;;;;;;19.82;41.86;97298.56;10371552;28;20232;-61
2022/03/26 14:36:43;;;;;;;19.80;13.02;;;;;;;20.38;41.05;97294.72;10371190;28;20249;-59
2022/03/26 14:41:44;;;;;;;21.50;11.88;;;;;;;20.63;39.78;97253.16;10370908;28;20180;-58
2022/03/26 14:46:46;;;;;;;20.67;11.93;;;;;;;21.11;39.02;97245.88;10369866;28;20212;-59
2022/03/26 14:51:46;;;;;;;21.77;12.35;;;;;;;22.30;37.49;97240.06;10371217;28;20221;-58
2022/03/26 14:56:47;;;;;;;19.77;11.15;;;;;;;21.59;39.00;97260.66;10370013;28;20213;-58
2022/03/26 15:01:47;;;;;;;13.13;10.43;;;;;;;22.71;37.19;97265.41;10370908;28;20216;-58
2022/03/26 15:06:48;;;;;;;14.93;8.88;;;;;;;24.60;34.41;97236.78;10370379;28;20213;-57
2022/03/26 15:11:48;;;;;;;14.90;10.75;;;;;;;23.31;35.97;97230.03;10370735;28;20225;-57
2022/03/26 15:16:48;;;;;;;17.73;11.18;;;;;;;21.12;39.45;97248.34;10369996;28;20378;-61
2022/03/26 15:21:49;;;;;;;17.67;9.60;;;;;;;19.04;43.00;97291.69;10370420;28;20192;-61
2022/03/26 15:26:50;;;;;;;14.00;8.90;;;;;;;18.87;43.83;97313.22;10370019;28;20224;-61
2022/03/26 15:31:53;;;;;;;19.38;11.93;;;;;;;17.46;45.66;97313.69;10370199;28;20228;-59
2022/03/26 15:36:53;;;;;;;11.63;8.48;;;;;;;17.55;45.09;97300.34;10369580;28;20244;-62
2022/03/26 15:41:54;;;;;;;11.75;7.22;;;;;;;17.23;45.55;97307.72;10370074;28;20200;-60
2022/03/26 15:46:57;;;;;;;11.68;7.15;;;;;;;17.37;45.90;97336.00;10369762;28;20294;-57
2022/03/26 15:51:59;;;;;;;11.10;7.10;;;;;;;17.06;46.39;97349.41;10370223;28;20774;-60
2022/03/26 15:56:59;;;;;;;11.80;7.13;;;;;;;16.83;47.49;97362.69;10369215;28;20734;-62
2022/03/26 16:01:59;;;;;;;11.45;7.00;;;;;;;16.35;47.77;97358.44;10375264;28;20342;-62
2022/03/26 16:07:00;;;;;;;9.95;6.15;;;;;;;16.00;49.19;97387.13;10377667;28;20193;-61
2022/03/26 16:12:00;;;;;;;9.13;6.75;;;;;;;15.52;49.99;97386.31;10377144;28;20274;-62
2022/03/26 16:17:01;;;;;;;10.98;6.75;;;;;;;15.16;50.85;97403.44;10376869;28;20220;-58
2022/03/26 16:22:01;;;;;;;17.38;7.97;;;;;;;14.73;51.80;97415.19;10377099;28;20200;-57
2022/03/26 16:27:01;;;;;;;13.10;7.35;;;;;;;14.56;52.79;97436.25;10373133;28;20198;-60
2022/03/26 16:32:02;;;;;;;10.07;6.72;;;;;;;14.56;53.08;97451.25;10373635;28;20217;-59
2022/03/26 16:37:03;;;;;;;9.15;6.05;;;;;;;14.61;52.87;97470.91;10292623;28;20689;-59
2022/03/26 16:42:03;;;;;;;12.57;6.20;;;;;;;14.41;54.31;97498.50;10292593;28;20187;-60
2022/03/26 16:47:04;;;;;;;7.28;5.53;;;;;;;14.43;53.32;97483.38;10294760;28;20260;-59
2022/03/26 16:52:05;;;;;;;8.57;5.20;;;;;;;14.45;53.45;97489.28;10294362;28;20223;-59
2022/03/26 16:57:06;;;;;;;7.50;6.30;;;;;;;14.08;54.73;97507.13;10294210;28;20199;-58
2022/03/26 17:02:07;;;;;;;7.00;5.38;;;;;;;14.03;55.09;97525.25;10294204;28;20198;-58
2022/03/26 17:07:07;;;;;;;14.60;6.93;;;;;;;13.76;55.99;97542.06;10294291;28;20202;-58
2022/03/26 17:12:07;;;;;;;12.98;7.75;;;;;;;13.48;57.73;97573.81;10293398;28;20713;-62
2022/03/26 17:17:08;;;;;;;14.45;7.53;;;;;;;13.57;56.77;97558.91;10293771;28;20692;-58
2022/03/26 17:22:08;;;;;;;18.25;7.55;;;;;;;13.51;57.58;97580.59;10293741;28;20221;-62
2022/03/26 17:27:09;;;;;;;17.50;8.13;;;;;;;13.44;58.16;97603.22;10293294;28;20190;-59
2022/03/26 17:32:09;;;;;;;10.45;7.68;;;;;;;13.44;57.45;97582.97;10295109;28;20266;-61
2022/03/26 17:37:12;;;;;;;13.07;8.68;;;;;;;13.20;58.32;97600.22;10432492;23;20746;-58
2022/03/26 17:42:14;;;;;;;14.38;8.82;;;;;;;13.11;59.14;97616.91;10414644;28;20220;-59
2022/03/26 17:47:14;;;;;;;13.70;9.40;;;;;;;13.15;59.44;97610.34;10414264;28;20212;-57
2022/03/26 17:52:15;;;;;;;14.35;9.25;;;;;;;13.07;59.82;97625.25;10413992;28;20212;-58
2022/03/26 17:57:15;;;;;;;17.67;9.45;;;;;;;13.02;60.31;97633.56;10413592;28;20205;-59
2022/03/26 18:02:16;;;;;;;16.92;9.65;;;;;;;12.96;60.71;97629.72;10413761;28;20683;-59
2022/03/26 18:07:16;;;;;;;22.13;11.57;;;;;;;12.79;61.64;97649.78;10413432;28;20721;-57
2022/03/26 18:12:21;;;;;;;20.52;12.07;;;;;;;12.80;62.12;97653.22;10413298;28;20727;-56
2022/03/26 18:17:21;;;;;;;18.67;12.13;;;;;;;12.75;62.48;97666.00;10412692;28;20296;-59
2022/03/26 18:22:22;;;;;;;16.63;11.05;;;;;;;12.74;62.88;97665.16;10412498;28;20275;-56
2022/03/26 18:27:22;;;;;;;18.17;11.60;;;;;;;12.57;63.88;97681.69;10412070;28;20231;-57
2022/03/26 18:32:23;;;;;;;20.55;11.98;;;;;;;12.35;65.49;97717.06;10412644;28;20226;-61
2022/03/26 18:37:24;;;;;;;26.13;13.80;;;;;;;12.10;66.83;97719.34;10411888;28;20240;-59
2022/03/26 18:42:25;;;;;;;23.25;14.82;;;;;;;12.09;66.96;97721.13;10412156;28;20216;-60
2022/03/26 18:47:25;;;;;;;25.73;13.90;;;;;;;12.09;67.37;97713.22;10411952;28;21085;-59
2022/03/26 18:52:25;;;;;;;19.00;12.52;;;;;;;12.01;69.33;97736.75;10411641;28;20225;-57
2022/03/26 18:57:26;;;;;;;21.80;14.02;;;;;;;11.95;71.50;97738.13;10411237;28;20220;-59
2022/03/26 19:02:26;;;;;;;22.27;13.13;;;;;;;11.84;73.66;97740.03;10411565;28;20275;-58
2022/03/26 19:07:27;;;;;;;21.35;13.85;;;;;;;11.72;76.96;97732.31;10411194;28;20205;-59
2022/03/26 19:12:27;;;;;;;29.98;16.00;;;;;;;11.65;79.57;97738.25;10411355;28;20729;-58
2022/03/26 19:17:28;;;;;;;24.83;14.98;;;;;;;11.47;82.82;97744.19;10410740;28;20239;-58
2022/03/26 19:22:29;;;;;;;25.57;15.90;;;;;;;11.39;85.83;97737.00;10411249;28;20238;-59
2022/03/26 19:27:30;;;;;;;23.63;14.23;;;;;;;11.34;87.60;97743.63;10410732;28;20257;-59
2022/03/26 19:32:31;;;;;;;25.23;14.60;;;;;;;11.31;88.82;97742.09;10410910;28;20216;-61
2022/03/26 19:37:31;;;;;;;24.92;14.85;;;;;;;11.20;90.34;97745.66;10418737;28;20232;-58
2022/03/26 19:42:32;;;;;;;23.90;14.02;;;;;;;11.24;89.42;97747.06;10419136;28;20188;-59
2022/03/26 19:47:32;;;;;;;20.67;13.43;;;;;;;11.19;90.39;97757.13;10418988;28;20184;-59
2022/03/26 19:52:35;;;;;;;27.13;15.18;;;;;;;11.24;90.63;97760.16;10418748;28;20718;-58
2022/03/26 19:57:36;;;;;;;23.05;14.45;;;;;;;11.24;90.10;97762.78;10417895;28;20227;-58
2022/03/26 20:02:36;;;;;;;25.97;15.77;;;;;;;11.16;91.47;97765.25;10418443;28;20275;-55
2022/03/26 20:07:37;;;;;;;22.20;14.15;;;;;;;11.02;93.20;97766.44;10418025;28;20196;-60
2022/03/26 20:12:38;;;;;;;25.57;15.93;;;;;;;10.82;93.88;97762.94;10418110;28;20212;-58
2022/03/26 20:22:58;;;;;;;28.33;14.80;;;;;;;10.86;96.19;97771.38;10417402;28;20204;-59
2022/03/26 20:27:58;;;;;;;25.07;15.43;;;;;;;10.82;97.66;97777.84;10417648;28;20192;-58
2022/03/26 20:32:59;;;;;;;26.40;16.07;;;;;;;10.53;100.00;97776.75;10416594;28;20282;-57
2022/03/26 20:37:59;;;;;;;27.63;15.73;;;;;;;10.38;100.00;97792.91;10417443;28;20189;-59
2022/03/26 20:43:00;;;;;;;31.77;19.03;;;;;;;10.40;100.00;97796.22;10416319;28;20220;-60
2022/03/26 20:48:01;;;;;;;27.97;16.83;;;;;;;10.35;100.00;97804.47;10416144;28;20191;-58
2022/03/26 20:53:01;;;;;;;29.17;17.80;;;;;;;10.29;100.00;97804.94;10415788;28;20220;-58
2022/03/26 20:58:01;;;;;;;28.80;17.67;;;;;;;10.07;100.00;97808.53;10416211;28;20626;-60
2022/03/26 21:03:02;;;;;;;32.23;18.67;;;;;;;9.94;100.00;97824.41;10416042;28;20305;-57
2022/03/26 21:08:02;;;;;;;30.60;17.13;;;;;;;9.97;100.00;97819.75;10415797;28;20200;-58
2022/03/26 21:13:05;;;;;;;26.83;16.23;;;;;;;10.04;100.00;97825.31;10415699;28;20216;-57
2022/03/26 21:18:05;;;;;;;25.37;16.47;;;;;;;9.93;100.00;97834.03;10415633;28;20219;-60
2022/03/26 21:23:06;;;;;;;25.33;14.93;;;;;;;9.89;100.00;97829.16;10415056;28;20756;-57
2022/03/26 21:28:06;;;;;;;26.27;15.33;;;;;;;9.63;100.00;97835.56;10415472;28;20204;-57
2022/03/26 21:33:07;;;;;;;21.70;13.40;;;;;;;9.59;100.00;97841.97;10414192;28;20235;-60
2022/03/26 21:38:08;;;;;;;21.23;12.83;;;;;;;9.70;100.00;97846.34;10415290;28;20188;-58
2022/03/26 21:43:09;;;;;;;19.33;11.17;;;;;;;9.35;100.00;97844.75;10414038;28;20208;-59
2022/03/26 21:48:10;;;;;;;21.13;12.47;;;;;;;9.38;100.00;97854.16;10414761;28;20188;-59
2022/03/26 21:53:11;;;;;;;22.53;12.40;;;;;;;9.26;100.00;97846.31;10413471;28;20270;-58
2022/03/26 21:58:12;;;;;;;32.80;14.50;;;;;;;9.07;100.00;97854.75;10413981;28;20185;-58
2022/03/26 22:03:13;;;;;;;24.23;13.73;;;;;;;9.16;100.00;97845.38;10413659;28;20220;-59
2022/03/26 22:08:13;;;;;;;25.63;14.83;;;;;;;9.31;100.00;97851.19;10413326;28;20192;-60
2022/03/26 22:13:14;;;;;;;25.63;14.97;;;;;;;9.22;100.00;97854.53;10413334;28;20228;-59
2022/03/26 22:18:15;;;;;;;28.77;16.43;;;;;;;9.01;100.00;97855.22;10413257;28;20219;-56
2022/03/26 22:23:15;;;;;;;28.90;16.13;;;;;;;8.95;100.00;97858.31;10412871;28;20212;-58
2022/03/26 22:28:15;;;;;;;26.67;16.50;;;;;;;8.91;100.00;97859.50;10413120;28;20688;-57
2022/03/26 22:33:16;;;;;;;32.07;15.73;;;;;;;8.94;100.00;97854.03;10412081;28;20803;-58
2022/03/26 22:38:16;;;;;;;31.27;16.00;;;;;;;8.66;100.00;97857.94;10412872;28;20614;-58
2022/03/26 22:43:17;;;;;;;26.13;14.50;;;;;;;8.58;100.00;97853.28;10411973;28;20694;-56
2022/03/26 22:48:17;;;;;;;22.10;13.63;;;;;;;8.56;100.00;97857.81;10412369;28;20618;-58
2022/03/26 22:53:17;;;;;;;18.53;12.10;;;;;;;8.58;100.00;97861.13;10411240;28;20686;-58
2022/03/26 22:58:18;;;;;;;20.43;10.93;;;;;;;8.42;100.00;97843.09;10411903;28;20531;-57
2022/03/26 23:03:18;;;;;;;18.73;10.70;;;;;;;8.45;100.00;97855.97;10411256;28;20234;-58
2022/03/26 23:08:19;;;;;;;17.27;10.53;;;;;;;8.41;100.00;97857.13;10411052;28;20566;-57